sensor_id;sensor_type;location;lat;lon;timestamp;P1;durP1;ratioP1;P2;durP2;ratioP2
19619;SDS011;9957;52.282;21.110;2023-03-17T00:01:09;122.75;;;40.40;;
19619;SDS011;9957;52.282;21.110;2023-03-17T00:03:37;129.80;;;41.35;;
19619;SDS011;9957;52.282;21.110;2023-03-17T00:06:04;144.85;;;43.30;;
19619;SDS011;9957;52.282;21.110;2023-03-17T00:08:31;136.13;;;45.03;;
19619;SDS011;9957;52.282;21.110;2023-03-17T00:10:58;137.77;;;43.67;;
19619;SDS011;9957;52.282;21.110;2023-03-17T00:13:24;151.30;;;45.63;;
19619;SDS011;9957;52.282;21.110;2023-03-17T00:15:54;155.52;;;48.65;;
19619;SDS011;9957;52.282;21.110;2023-03-17T00:18:21;160.55;;;48.00;;
19619;SDS011;9957;52.282;21.110;2023-03-17T00:20:47;150.68;;;45.60;;
19619;SDS011;9957;52.282;21.110;2023-03-17T00:23:22;155.90;;;49.83;;
19619;SDS011;9957;52.282;21.110;2023-03-17T00:25:49;157.90;;;50.88;;
19619;SDS011;9957;52.282;21.110;2023-03-17T00:30:45;139.23;;;46.28;;
19619;SDS011;9957;52.282;21.110;2023-03-17T00:33:12;128.93;;;41.40;;
19619;SDS011;9957;52.282;21.110;2023-03-17T00:35:40;100.55;;;34.67;;
19619;SDS011;9957;52.282;21.110;2023-03-17T00:38:08;104.25;;;34.65;;
19619;SDS011;9957;52.282;21.110;2023-03-17T00:40:35;108.65;;;34.83;;
19619;SDS011;9957;52.282;21.110;2023-03-17T00:43:01;98.80;;;34.65;;
19619;SDS011;9957;52.282;21.110;2023-03-17T00:45:28;104.82;;;34.33;;
19619;SDS011;9957;52.282;21.110;2023-03-17T00:47:54;100.35;;;34.67;;
19619;SDS011;9957;52.282;21.110;2023-03-17T00:50:21;117.95;;;38.05;;
19619;SDS011;9957;52.282;21.110;2023-03-17T00:52:48;109.30;;;37.00;;
19619;SDS011;9957;52.282;21.110;2023-03-17T00:55:15;95.70;;;33.50;;
19619;SDS011;9957;52.282;21.110;2023-03-17T00:57:41;97.85;;;33.67;;
19619;SDS011;9957;52.282;21.110;2023-03-17T01:00:18;105.03;;;35.70;;
19619;SDS011;9957;52.282;21.110;2023-03-17T01:02:45;108.65;;;36.53;;
19619;SDS011;9957;52.282;21.110;2023-03-17T01:05:11;114.00;;;37.58;;
19619;SDS011;9957;52.282;21.110;2023-03-17T01:07:37;114.75;;;37.65;;
19619;SDS011;9957;52.282;21.110;2023-03-17T01:10:15;109.53;;;36.75;;
19619;SDS011;9957;52.282;21.110;2023-03-17T01:12:41;108.43;;;36.10;;
19619;SDS011;9957;52.282;21.110;2023-03-17T01:15:07;103.20;;;34.93;;
19619;SDS011;9957;52.282;21.110;2023-03-17T01:17:34;102.80;;;33.80;;
19619;SDS011;9957;52.282;21.110;2023-03-17T01:20:02;101.40;;;35.13;;
19619;SDS011;9957;52.282;21.110;2023-03-17T01:22:29;101.07;;;35.77;;
19619;SDS011;9957;52.282;21.110;2023-03-17T01:24:55;97.63;;;34.15;;
19619;SDS011;9957;52.282;21.110;2023-03-17T01:27:22;97.55;;;35.10;;
19619;SDS011;9957;52.282;21.110;2023-03-17T01:29:51;93.00;;;35.08;;
19619;SDS011;9957;52.282;21.110;2023-03-17T01:32:18;94.78;;;32.90;;
19619;SDS011;9957;52.282;21.110;2023-03-17T01:34:44;92.32;;;33.00;;
19619;SDS011;9957;52.282;21.110;2023-03-17T01:37:10;98.38;;;35.33;;
19619;SDS011;9957;52.282;21.110;2023-03-17T01:39:39;102.35;;;34.83;;
19619;SDS011;9957;52.282;21.110;2023-03-17T01:42:05;101.28;;;33.85;;
19619;SDS011;9957;52.282;21.110;2023-03-17T01:44:31;100.68;;;35.97;;
19619;SDS011;9957;52.282;21.110;2023-03-17T01:46:57;93.80;;;33.72;;
19619;SDS011;9957;52.282;21.110;2023-03-17T01:56:52;89.00;;;25.50;;
19619;SDS011;9957;52.282;21.110;2023-03-17T01:59:22;87.17;;;27.10;;
19619;SDS011;9957;52.282;21.110;2023-03-17T02:01:49;77.23;;;25.03;;
19619;SDS011;9957;52.282;21.110;2023-03-17T02:04:17;70.77;;;24.37;;
19619;SDS011;9957;52.282;21.110;2023-03-17T02:06:45;98.15;;;32.60;;
19619;SDS011;9957;52.282;21.110;2023-03-17T02:09:11;108.30;;;36.77;;
19619;SDS011;9957;52.282;21.110;2023-03-17T02:11:37;102.47;;;36.72;;
19619;SDS011;9957;52.282;21.110;2023-03-17T02:14:04;122.65;;;40.97;;
19619;SDS011;9957;52.282;21.110;2023-03-17T02:16:30;113.35;;;41.63;;
19619;SDS011;9957;52.282;21.110;2023-03-17T02:18:56;127.47;;;44.53;;
19619;SDS011;9957;52.282;21.110;2023-03-17T02:23:52;130.73;;;45.60;;
19619;SDS011;9957;52.282;21.110;2023-03-17T02:26:18;122.32;;;46.05;;
19619;SDS011;9957;52.282;21.110;2023-03-17T02:28:44;136.02;;;46.67;;
19619;SDS011;9957;52.282;21.110;2023-03-17T02:31:11;120.35;;;45.63;;
19619;SDS011;9957;52.282;21.110;2023-03-17T02:33:37;131.35;;;46.22;;
19619;SDS011;9957;52.282;21.110;2023-03-17T02:36:03;130.68;;;45.67;;
19619;SDS011;9957;52.282;21.110;2023-03-17T02:38:29;124.07;;;46.30;;
19619;SDS011;9957;52.282;21.110;2023-03-17T02:40:55;138.63;;;46.67;;
19619;SDS011;9957;52.282;21.110;2023-03-17T02:43:22;126.50;;;46.00;;
19619;SDS011;9957;52.282;21.110;2023-03-17T02:45:48;129.05;;;46.25;;
19619;SDS011;9957;52.282;21.110;2023-03-17T02:48:14;128.68;;;47.40;;
19619;SDS011;9957;52.282;21.110;2023-03-17T02:50:40;135.77;;;46.33;;
19619;SDS011;9957;52.282;21.110;2023-03-17T02:53:06;125.95;;;45.53;;
19619;SDS011;9957;52.282;21.110;2023-03-17T02:55:32;122.90;;;45.78;;
19619;SDS011;9957;52.282;21.110;2023-03-17T02:57:58;126.50;;;45.28;;
19619;SDS011;9957;52.282;21.110;2023-03-17T03:00:27;121.00;;;44.75;;
19619;SDS011;9957;52.282;21.110;2023-03-17T03:02:53;121.38;;;45.17;;
19619;SDS011;9957;52.282;21.110;2023-03-17T03:05:19;114.85;;;42.60;;
19619;SDS011;9957;52.282;21.110;2023-03-17T03:07:45;115.75;;;43.20;;
19619;SDS011;9957;52.282;21.110;2023-03-17T03:10:12;123.03;;;43.75;;
19619;SDS011;9957;52.282;21.110;2023-03-17T03:12:38;115.85;;;42.20;;
19619;SDS011;9957;52.282;21.110;2023-03-17T03:15:04;117.32;;;41.67;;
19619;SDS011;9957;52.282;21.110;2023-03-17T03:17:31;110.40;;;41.08;;
19619;SDS011;9957;52.282;21.110;2023-03-17T03:19:57;115.47;;;41.80;;
19619;SDS011;9957;52.282;21.110;2023-03-17T03:22:24;114.00;;;40.92;;
19619;SDS011;9957;52.282;21.110;2023-03-17T03:24:50;120.57;;;41.67;;
19619;SDS011;9957;52.282;21.110;2023-03-17T03:27:16;110.32;;;40.03;;
19619;SDS011;9957;52.282;21.110;2023-03-17T03:29:42;108.78;;;40.03;;
19619;SDS011;9957;52.282;21.110;2023-03-17T03:32:08;108.65;;;39.35;;
19619;SDS011;9957;52.282;21.110;2023-03-17T03:34:34;113.95;;;39.10;;
19619;SDS011;9957;52.282;21.110;2023-03-17T03:37:00;106.20;;;39.67;;
19619;SDS011;9957;52.282;21.110;2023-03-17T03:39:26;105.45;;;38.90;;
19619;SDS011;9957;52.282;21.110;2023-03-17T03:41:52;103.82;;;40.13;;
19619;SDS011;9957;52.282;21.110;2023-03-17T03:44:22;105.85;;;39.15;;
19619;SDS011;9957;52.282;21.110;2023-03-17T03:46:48;111.20;;;40.00;;
19619;SDS011;9957;52.282;21.110;2023-03-17T03:49:14;104.20;;;38.83;;
19619;SDS011;9957;52.282;21.110;2023-03-17T03:51:40;109.63;;;39.13;;
19619;SDS011;9957;52.282;21.110;2023-03-17T03:54:06;110.15;;;39.78;;
19619;SDS011;9957;52.282;21.110;2023-03-17T03:56:32;112.18;;;38.55;;
19619;SDS011;9957;52.282;21.110;2023-03-17T03:58:58;108.28;;;39.10;;
19619;SDS011;9957;52.282;21.110;2023-03-17T04:01:25;110.65;;;38.45;;
19619;SDS011;9957;52.282;21.110;2023-03-17T04:03:51;111.65;;;38.40;;
19619;SDS011;9957;52.282;21.110;2023-03-17T04:06:17;111.78;;;39.80;;
19619;SDS011;9957;52.282;21.110;2023-03-17T04:08:43;114.47;;;39.47;;
19619;SDS011;9957;52.282;21.110;2023-03-17T04:11:10;110.43;;;39.58;;
19619;SDS011;9957;52.282;21.110;2023-03-17T04:13:36;114.85;;;38.83;;
19619;SDS011;9957;52.282;21.110;2023-03-17T04:16:02;122.22;;;39.22;;
19619;SDS011;9957;52.282;21.110;2023-03-17T04:18:28;118.72;;;37.75;;
19619;SDS011;9957;52.282;21.110;2023-03-17T04:20:55;110.25;;;37.97;;
19619;SDS011;9957;52.282;21.110;2023-03-17T04:23:21;101.90;;;37.08;;
19619;SDS011;9957;52.282;21.110;2023-03-17T04:25:51;106.70;;;37.42;;
19619;SDS011;9957;52.282;21.110;2023-03-17T04:28:18;102.50;;;35.95;;
19619;SDS011;9957;52.282;21.110;2023-03-17T04:30:44;106.10;;;35.95;;
19619;SDS011;9957;52.282;21.110;2023-03-17T04:33:11;105.18;;;36.03;;
19619;SDS011;9957;52.282;21.110;2023-03-17T04:35:37;115.80;;;36.13;;
19619;SDS011;9957;52.282;21.110;2023-03-17T04:38:03;100.00;;;36.20;;
19619;SDS011;9957;52.282;21.110;2023-03-17T04:40:30;101.73;;;35.03;;
19619;SDS011;9957;52.282;21.110;2023-03-17T04:42:56;89.85;;;35.47;;
19619;SDS011;9957;52.282;21.110;2023-03-17T04:45:22;105.45;;;34.72;;
19619;SDS011;9957;52.282;21.110;2023-03-17T04:47:48;100.25;;;34.45;;
19619;SDS011;9957;52.282;21.110;2023-03-17T04:50:14;100.85;;;34.42;;
19619;SDS011;9957;52.282;21.110;2023-03-17T04:52:41;107.72;;;35.53;;
19619;SDS011;9957;52.282;21.110;2023-03-17T04:55:08;97.75;;;35.08;;
19619;SDS011;9957;52.282;21.110;2023-03-17T04:57:34;103.93;;;35.22;;
19619;SDS011;9957;52.282;21.110;2023-03-17T05:00:01;106.85;;;35.30;;
19619;SDS011;9957;52.282;21.110;2023-03-17T05:02:27;105.78;;;35.25;;
19619;SDS011;9957;52.282;21.110;2023-03-17T05:04:53;93.75;;;34.15;;
19619;SDS011;9957;52.282;21.110;2023-03-17T05:07:19;91.78;;;32.88;;
19619;SDS011;9957;52.282;21.110;2023-03-17T05:09:45;107.07;;;34.43;;
19619;SDS011;9957;52.282;21.110;2023-03-17T05:12:12;98.07;;;33.95;;
19619;SDS011;9957;52.282;21.110;2023-03-17T05:14:38;87.22;;;33.85;;
19619;SDS011;9957;52.282;21.110;2023-03-17T05:17:04;97.05;;;34.13;;
19619;SDS011;9957;52.282;21.110;2023-03-17T05:19:31;81.75;;;32.00;;
19619;SDS011;9957;52.282;21.110;2023-03-17T05:21:57;97.05;;;33.85;;
19619;SDS011;9957;52.282;21.110;2023-03-17T05:24:23;102.15;;;33.88;;
19619;SDS011;9957;52.282;21.110;2023-03-17T05:26:49;88.50;;;32.40;;
19619;SDS011;9957;52.282;21.110;2023-03-17T05:29:15;84.15;;;31.13;;
19619;SDS011;9957;52.282;21.110;2023-03-17T05:31:41;103.05;;;32.63;;
19619;SDS011;9957;52.282;21.110;2023-03-17T05:34:08;83.95;;;30.33;;
19619;SDS011;9957;52.282;21.110;2023-03-17T05:36:34;83.68;;;29.60;;
19619;SDS011;9957;52.282;21.110;2023-03-17T05:39:00;76.15;;;28.80;;
19619;SDS011;9957;52.282;21.110;2023-03-17T05:41:27;83.10;;;30.93;;
19619;SDS011;9957;52.282;21.110;2023-03-17T05:43:54;87.00;;;30.95;;
19619;SDS011;9957;52.282;21.110;2023-03-17T05:46:20;84.47;;;32.20;;
19619;SDS011;9957;52.282;21.110;2023-03-17T05:48:46;97.07;;;33.28;;
19619;SDS011;9957;52.282;21.110;2023-03-17T05:51:13;87.30;;;27.20;;
19619;SDS011;9957;52.282;21.110;2023-03-17T05:53:39;75.53;;;25.77;;
19619;SDS011;9957;52.282;21.110;2023-03-17T05:56:05;76.87;;;24.63;;
19619;SDS011;9957;52.282;21.110;2023-03-17T06:05:50;64.90;;;22.77;;
19619;SDS011;9957;52.282;21.110;2023-03-17T06:08:16;73.30;;;22.23;;
